sensor_id;sensor_type;location;lat;lon;timestamp;pressure;altitude;pressure_sealevel;temperature;humidity
46211;BME280;52144;48.040;-1.594;2023-09-07T00:00:19;101035.13;;;27.98;90.74
46211;BME280;52144;48.040;-1.594;2023-09-07T00:02:46;101036.50;;;27.86;91.82
46211;BME280;52144;48.040;-1.594;2023-09-07T00:05:16;101034.72;;;27.62;92.74
46211;BME280;52144;48.040;-1.594;2023-09-07T00:07:44;101031.75;;;27.80;92.29
46211;BME280;52144;48.040;-1.594;2023-09-07T00:10:11;101026.41;;;28.03;90.82
46211;BME280;52144;48.040;-1.594;2023-09-07T00:12:40;101038.47;;;28.17;89.89
46211;BME280;52144;48.040;-1.594;2023-09-07T00:15:09;101036.41;;;28.27;89.00
46211;BME280;52144;48.040;-1.594;2023-09-07T00:17:37;101036.72;;;28.32;88.62
46211;BME280;52144;48.040;-1.594;2023-09-07T00:20:05;101028.47;;;28.01;89.26
46211;BME280;52144;48.040;-1.594;2023-09-07T00:22:39;101030.91;;;27.79;91.39
46211;BME280;52144;48.040;-1.594;2023-09-07T00:25:07;101030.25;;;27.61;93.26
46211;BME280;52144;48.040;-1.594;2023-09-07T00:27:36;101019.88;;;27.40;93.60
46211;BME280;52144;48.040;-1.594;2023-09-07T00:30:05;101020.22;;;27.37;94.07
46211;BME280;52144;48.040;-1.594;2023-09-07T00:32:36;101012.69;;;27.39;93.96
46211;BME280;52144;48.040;-1.594;2023-09-07T00:35:05;101017.63;;;27.44;94.10
46211;BME280;52144;48.040;-1.594;2023-09-07T00:37:33;101007.56;;;27.36;93.45
46211;BME280;52144;48.040;-1.594;2023-09-07T00:40:02;101013.38;;;27.33;93.88
46211;BME280;52144;48.040;-1.594;2023-09-07T00:42:35;101007.22;;;27.39;94.54
46211;BME280;52144;48.040;-1.594;2023-09-07T00:45:03;101006.00;;;27.33;92.62
46211;BME280;52144;48.040;-1.594;2023-09-07T00:47:33;101003.97;;;27.27;94.08
46211;BME280;52144;48.040;-1.594;2023-09-07T00:50:02;101001.06;;;27.20;93.75
46211;BME280;52144;48.040;-1.594;2023-09-07T00:52:31;100999.00;;;27.31;93.06
46211;BME280;52144;48.040;-1.594;2023-09-07T00:54:59;101006.84;;;27.50;92.19
46211;BME280;52144;48.040;-1.594;2023-09-07T00:57:31;101001.69;;;27.55;91.42
46211;BME280;52144;48.040;-1.594;2023-09-07T00:59:59;101002.19;;;27.67;91.10
46211;BME280;52144;48.040;-1.594;2023-09-07T01:02:27;101000.47;;;27.74;90.69
46211;BME280;52144;48.040;-1.594;2023-09-07T01:04:56;101000.97;;;27.70;90.45
46211;BME280;52144;48.040;-1.594;2023-09-07T01:07:26;101000.97;;;27.70;90.43
46211;BME280;52144;48.040;-1.594;2023-09-07T01:09:59;100997.78;;;27.58;90.20
46211;BME280;52144;48.040;-1.594;2023-09-07T01:12:28;100992.88;;;27.29;91.38
46211;BME280;52144;48.040;-1.594;2023-09-07T01:14:58;100996.63;;;27.19;92.99
46211;BME280;52144;48.040;-1.594;2023-09-07T01:17:26;100990.50;;;27.26;92.55
46211;BME280;52144;48.040;-1.594;2023-09-07T01:19:57;100990.09;;;27.20;91.90
46211;BME280;52144;48.040;-1.594;2023-09-07T01:22:27;100989.44;;;27.27;92.04
46211;BME280;52144;48.040;-1.594;2023-09-07T01:24:55;100988.06;;;27.31;91.45
46211;BME280;52144;48.040;-1.594;2023-09-07T01:27:23;100984.31;;;27.15;92.38
46211;BME280;52144;48.040;-1.594;2023-09-07T01:29:51;100981.94;;;26.96;93.03
46211;BME280;52144;48.040;-1.594;2023-09-07T01:32:19;100973.56;;;26.89;93.85
46211;BME280;52144;48.040;-1.594;2023-09-07T01:34:48;100976.78;;;26.85;94.18
46211;BME280;52144;48.040;-1.594;2023-09-07T01:37:16;100971.00;;;26.71;94.88
46211;BME280;52144;48.040;-1.594;2023-09-07T01:39:45;100965.34;;;26.65;93.96
46211;BME280;52144;48.040;-1.594;2023-09-07T01:42:13;100960.91;;;26.64;94.56
46211;BME280;52144;48.040;-1.594;2023-09-07T01:44:40;100964.16;;;26.67;94.27
46211;BME280;52144;48.040;-1.594;2023-09-07T01:47:09;100964.47;;;26.80;95.04
46211;BME280;52144;48.040;-1.594;2023-09-07T01:49:37;100967.91;;;26.82;93.26
46211;BME280;52144;48.040;-1.594;2023-09-07T01:52:05;100966.72;;;26.69;94.36
46211;BME280;52144;48.040;-1.594;2023-09-07T01:54:33;100961.94;;;26.63;95.10
46211;BME280;52144;48.040;-1.594;2023-09-07T01:57:04;100960.75;;;26.65;94.70
46211;BME280;52144;48.040;-1.594;2023-09-07T01:59:32;100960.75;;;26.90;93.41
46211;BME280;52144;48.040;-1.594;2023-09-07T02:01:59;100961.78;;;27.05;90.77
46211;BME280;52144;48.040;-1.594;2023-09-07T02:04:27;100963.81;;;26.87;90.85
46211;BME280;52144;48.040;-1.594;2023-09-07T02:06:55;100958.53;;;26.60;92.33
46211;BME280;52144;48.040;-1.594;2023-09-07T02:09:23;100962.38;;;26.50;93.13
46211;BME280;52144;48.040;-1.594;2023-09-07T02:11:51;100960.00;;;26.55;93.06
46211;BME280;52144;48.040;-1.594;2023-09-07T02:14:20;100961.06;;;26.62;92.19
46211;BME280;52144;48.040;-1.594;2023-09-07T02:16:48;100957.44;;;26.53;91.75
46211;BME280;52144;48.040;-1.594;2023-09-07T02:19:16;100959.47;;;26.35;93.39
46211;BME280;52144;48.040;-1.594;2023-09-07T02:21:44;100949.38;;;26.35;93.35
46211;BME280;52144;48.040;-1.594;2023-09-07T02:24:12;100952.66;;;26.47;93.20
46211;BME280;52144;48.040;-1.594;2023-09-07T02:26:39;100950.97;;;26.46;93.26
46211;BME280;52144;48.040;-1.594;2023-09-07T02:29:11;100949.91;;;26.39;93.39
46211;BME280;52144;48.040;-1.594;2023-09-07T02:31:41;100947.69;;;26.34;93.85
46211;BME280;52144;48.040;-1.594;2023-09-07T02:34:09;100959.16;;;26.38;93.84
46211;BME280;52144;48.040;-1.594;2023-09-07T02:36:37;100945.97;;;26.33;93.85
46211;BME280;52144;48.040;-1.594;2023-09-07T02:39:04;100956.72;;;26.27;94.56
46211;BME280;52144;48.040;-1.594;2023-09-07T02:41:35;100948.34;;;26.20;95.56
46211;BME280;52144;48.040;-1.594;2023-09-07T02:44:03;100944.38;;;26.06;96.11
46211;BME280;52144;48.040;-1.594;2023-09-07T02:46:31;100942.16;;;26.01;95.59
46211;BME280;52144;48.040;-1.594;2023-09-07T02:49:00;100946.97;;;26.16;94.78
46211;BME280;52144;48.040;-1.594;2023-09-07T02:51:28;100944.56;;;26.21;93.50
46211;BME280;52144;48.040;-1.594;2023-09-07T02:53:56;100947.53;;;26.36;92.89
46211;BME280;52144;48.040;-1.594;2023-09-07T02:56:24;100950.44;;;26.51;91.74
46211;BME280;52144;48.040;-1.594;2023-09-07T02:58:52;100951.81;;;26.55;91.79
46211;BME280;52144;48.040;-1.594;2023-09-07T03:01:20;100945.63;;;26.20;92.00
46211;BME280;52144;48.040;-1.594;2023-09-07T03:03:48;100950.03;;;26.13;93.60
46211;BME280;52144;48.040;-1.594;2023-09-07T03:06:18;100943.19;;;26.09;93.23
46211;BME280;52144;48.040;-1.594;2023-09-07T03:08:46;100947.31;;;26.21;93.00
46211;BME280;52144;48.040;-1.594;2023-09-07T03:11:14;100941.00;;;26.29;91.76
46211;BME280;52144;48.040;-1.594;2023-09-07T03:13:42;100944.97;;;26.34;92.24
46211;BME280;52144;48.040;-1.594;2023-09-07T03:16:10;100950.75;;;26.39;91.94
46211;BME280;52144;48.040;-1.594;2023-09-07T03:18:38;100946.34;;;26.38;90.64
46211;BME280;52144;48.040;-1.594;2023-09-07T03:21:06;100945.97;;;26.33;91.04
46211;BME280;52144;48.040;-1.594;2023-09-07T03:23:35;100946.63;;;26.27;92.83
46211;BME280;52144;48.040;-1.594;2023-09-07T03:26:03;100953.47;;;26.23;92.51
46211;BME280;52144;48.040;-1.594;2023-09-07T03:28:31;100949.72;;;26.24;94.71
46211;BME280;52144;48.040;-1.594;2023-09-07T03:30:59;100947.66;;;26.18;94.05
46211;BME280;52144;48.040;-1.594;2023-09-07T03:33:27;100945.19;;;25.98;95.36
46211;BME280;52144;48.040;-1.594;2023-09-07T03:35:55;100940.72;;;25.89;95.69
46211;BME280;52144;48.040;-1.594;2023-09-07T03:38:25;100939.66;;;25.82;96.39
46211;BME280;52144;48.040;-1.594;2023-09-07T03:40:54;100940.81;;;25.71;96.39
46211;BME280;52144;48.040;-1.594;2023-09-07T03:43:22;100941.66;;;25.72;96.19
46211;BME280;52144;48.040;-1.594;2023-09-07T03:45:50;100938.63;;;25.75;96.43
46211;BME280;52144;48.040;-1.594;2023-09-07T03:48:18;100952.59;;;25.80;94.27
46211;BME280;52144;48.040;-1.594;2023-09-07T03:50:47;100953.81;;;25.86;94.71
46211;BME280;52144;48.040;-1.594;2023-09-07T03:53:15;100948.50;;;25.76;95.31
46211;BME280;52144;48.040;-1.594;2023-09-07T03:55:44;100942.53;;;25.80;96.40
46211;BME280;52144;48.040;-1.594;2023-09-07T03:58:13;100940.88;;;25.88;95.04
46211;BME280;52144;48.040;-1.594;2023-09-07T04:00:41;100939.34;;;25.85;93.44
46211;BME280;52144;48.040;-1.594;2023-09-07T04:03:09;100938.25;;;25.70;95.66
46211;BME280;52144;48.040;-1.594;2023-09-07T04:05:37;100948.63;;;25.66;96.14
46211;BME280;52144;48.040;-1.594;2023-09-07T04:08:06;100948.72;;;25.56;95.67
46211;BME280;52144;48.040;-1.594;2023-09-07T04:10:36;100940.84;;;25.45;94.62
46211;BME280;52144;48.040;-1.594;2023-09-07T04:13:05;100937.59;;;25.41;95.34
46211;BME280;52144;48.040;-1.594;2023-09-07T04:15:41;100943.28;;;25.56;93.25
46211;BME280;52144;48.040;-1.594;2023-09-07T04:18:11;100950.66;;;25.64;92.96
46211;BME280;52144;48.040;-1.594;2023-09-07T04:20:39;100946.38;;;25.61;93.66
46211;BME280;52144;48.040;-1.594;2023-09-07T04:23:07;100945.91;;;25.74;92.60
46211;BME280;52144;48.040;-1.594;2023-09-07T04:25:35;100946.31;;;25.45;94.19
46211;BME280;52144;48.040;-1.594;2023-09-07T04:28:03;100939.72;;;25.30;95.63
46211;BME280;52144;48.040;-1.594;2023-09-07T04:30:32;100940.31;;;25.41;96.03
46211;BME280;52144;48.040;-1.594;2023-09-07T04:33:01;100937.09;;;25.46;95.97
46211;BME280;52144;48.040;-1.594;2023-09-07T04:35:29;100943.09;;;25.50;94.44
46211;BME280;52144;48.040;-1.594;2023-09-07T04:37:58;100939.53;;;25.57;95.05
46211;BME280;52144;48.040;-1.594;2023-09-07T04:40:26;100940.16;;;25.43;95.54
46211;BME280;52144;48.040;-1.594;2023-09-07T04:42:54;100938.34;;;25.26;95.69
46211;BME280;52144;48.040;-1.594;2023-09-07T04:45:21;100934.75;;;25.25;96.11
46211;BME280;52144;48.040;-1.594;2023-09-07T04:47:49;100938.06;;;25.37;95.89
46211;BME280;52144;48.040;-1.594;2023-09-07T04:50:19;100947.19;;;25.54;94.58
46211;BME280;52144;48.040;-1.594;2023-09-07T04:52:47;100947.91;;;25.64;93.64
46211;BME280;52144;48.040;-1.594;2023-09-07T04:55:15;100943.16;;;25.66;93.64
46211;BME280;52144;48.040;-1.594;2023-09-07T04:57:43;100938.63;;;25.75;93.25
46211;BME280;52144;48.040;-1.594;2023-09-07T05:00:11;100950.41;;;25.83;92.95
46211;BME280;52144;48.040;-1.594;2023-09-07T05:02:39;100953.22;;;25.66;92.58
46211;BME280;52144;48.040;-1.594;2023-09-07T05:05:09;100949.53;;;25.40;94.17
46211;BME280;52144;48.040;-1.594;2023-09-07T05:07:38;100940.06;;;25.09;96.29
46211;BME280;52144;48.040;-1.594;2023-09-07T05:10:07;100946.50;;;24.99;97.08
46211;BME280;52144;48.040;-1.594;2023-09-07T05:12:38;100947.44;;;24.90;95.01
46211;BME280;52144;48.040;-1.594;2023-09-07T05:15:06;100944.00;;;24.88;95.98
46211;BME280;52144;48.040;-1.594;2023-09-07T05:17:34;100947.66;;;24.97;95.50
46211;BME280;52144;48.040;-1.594;2023-09-07T05:20:02;100955.59;;;25.08;93.57
46211;BME280;52144;48.040;-1.594;2023-09-07T05:22:30;100952.31;;;25.05;94.51
46211;BME280;52144;48.040;-1.594;2023-09-07T05:25:02;100951.63;;;25.02;93.83
46211;BME280;52144;48.040;-1.594;2023-09-07T05:27:30;100951.94;;;24.99;93.89
46211;BME280;52144;48.040;-1.594;2023-09-07T05:29:58;100952.94;;;24.98;95.57
46211;BME280;52144;48.040;-1.594;2023-09-07T05:32:25;100948.69;;;24.96;95.05
46211;BME280;52144;48.040;-1.594;2023-09-07T05:34:53;100948.91;;;24.85;94.97
46211;BME280;52144;48.040;-1.594;2023-09-07T05:37:21;100951.19;;;24.71;97.36
46211;BME280;52144;48.040;-1.594;2023-09-07T05:39:49;100946.59;;;24.90;95.08
46211;BME280;52144;48.040;-1.594;2023-09-07T05:42:18;100950.94;;;24.82;96.72
46211;BME280;52144;48.040;-1.594;2023-09-07T05:44:46;100953.50;;;25.02;96.67
46211;BME280;52144;48.040;-1.594;2023-09-07T05:47:13;100960.47;;;25.22;95.43
46211;BME280;52144;48.040;-1.594;2023-09-07T05:49:41;100957.84;;;25.39;94.49
46211;BME280;52144;48.040;-1.594;2023-09-07T05:52:09;100966.03;;;25.39;89.46
46211;BME280;52144;48.040;-1.594;2023-09-07T05:54:37;100969.63;;;25.39;93.13
46211;BME280;52144;48.040;-1.594;2023-09-07T05:57:05;100962.22;;;25.32;94.04
46211;BME280;52144;48.040;-1.594;2023-09-07T05:59:34;100965.28;;;25.29;87.95
46211;BME280;52144;48.040;-1.594;2023-09-07T06:02:02;100969.72;;;25.30;91.93
46211;BME280;52144;48.040;-1.594;2023-09-07T06:04:30;100967.53;;;25.15;93.59
46211;BME280;52144;48.040;-1.594;2023-09-07T06:06:58;100964.38;;;25.20;94.69
46211;BME280;52144;48.040;-1.594;2023-09-07T06:09:26;100965.72;;;24.98;95.06
46211;BME280;52144;48.040;-1.594;2023-09-07T06:11:55;100961.25;;;25.15;94.72
46211;BME280;52144;48.040;-1.594;2023-09-07T06:14:23;100961.78;;;25.18;93.90
46211;BME280;52144;48.040;-1.594;2023-09-07T06:16:52;100962.03;;;25.25;95.01
46211;BME280;52144;48.040;-1.594;2023-09-07T06:19:20;100966.34;;;25.62;94.29
46211;BME280;52144;48.040;-1.594;2023-09-07T06:21:48;100965.13;;;25.91;92.39
46211;BME280;52144;48.040;-1.594;2023-09-07T06:24:16;100968.94;;;26.06;91.40
46211;BME280;52144;48.040;-1.594;2023-09-07T06:26:44;100974.22;;;25.99;93.94
46211;BME280;52144;48.040;-1.594;2023-09-07T06:29:12;100966.69;;;25.93;94.79
46211;BME280;52144;48.040;-1.594;2023-09-07T06:31:40;100975.81;;;25.84;93.56
46211;BME280;52144;48.040;-1.594;2023-09-07T06:34:09;100967.66;;;25.58;96.58
46211;BME280;52144;48.040;-1.594;2023-09-07T06:36:37;100969.09;;;25.70;95.84
46211;BME280;52144;48.040;-1.594;2023-09-07T06:39:14;100972.91;;;25.77;94.48
46211;BME280;52144;48.040;-1.594;2023-09-07T06:41:41;100974.28;;;25.81;94.23
46211;BME280;52144;48.040;-1.594;2023-09-07T06:44:09;100984.38;;;25.89;95.13
46211;BME280;52144;48.040;-1.594;2023-09-07T06:46:37;100973.53;;;25.97;95.24
46211;BME280;52144;48.040;-1.594;2023-09-07T06:49:05;100976.47;;;26.12;95.48
46211;BME280;52144;48.040;-1.594;2023-09-07T06:51:34;100978.00;;;26.15;95.29
46211;BME280;52144;48.040;-1.594;2023-09-07T06:54:02;100983.19;;;26.26;93.29
46211;BME280;52144;48.040;-1.594;2023-09-07T06:56:30;100982.56;;;26.57;91.79
46211;BME280;52144;48.040;-1.594;2023-09-07T06:59:01;100981.75;;;26.65;92.46
46211;BME280;52144;48.040;-1.594;2023-09-07T07:01:29;100985.19;;;26.75;91.17
46211;BME280;52144;48.040;-1.594;2023-09-07T07:03:56;100990.13;;;26.79;90.59
46211;BME280;52144;48.040;-1.594;2023-09-07T07:06:25;100979.88;;;26.90;89.84
46211;BME280;52144;48.040;-1.594;2023-09-07T07:08:54;100980.56;;;26.75;91.56
46211;BME280;52144;48.040;-1.594;2023-09-07T07:11:22;100985.19;;;26.99;89.86
46211;BME280;52144;48.040;-1.594;2023-09-07T07:13:49;100990.13;;;27.29;88.45
46211;BME280;52144;48.040;-1.594;2023-09-07T07:16:17;100990.47;;;27.42;87.70
46211;BME280;52144;48.040;-1.594;2023-09-07T07:18:45;100990.59;;;27.49;86.66
46211;BME280;52144;48.040;-1.594;2023-09-07T07:21:13;100992.66;;;27.47;87.66
46211;BME280;52144;48.040;-1.594;2023-09-07T07:23:41;100989.25;;;27.45;87.32
46211;BME280;52144;48.040;-1.594;2023-09-07T07:26:11;100995.28;;;27.32;89.73
46211;BME280;52144;48.040;-1.594;2023-09-07T07:28:38;100989.81;;;27.24;89.10
46211;BME280;52144;48.040;-1.594;2023-09-07T07:31:07;100990.47;;;27.34;89.13
46211;BME280;52144;48.040;-1.594;2023-09-07T07:33:36;100992.13;;;27.59;86.26
46211;BME280;52144;48.040;-1.594;2023-09-07T07:36:04;100997.59;;;27.59;85.88
46211;BME280;52144;48.040;-1.594;2023-09-07T07:38:32;100991.34;;;27.82;86.36
46211;BME280;52144;48.040;-1.594;2023-09-07T07:41:01;100989.50;;;27.91;86.47
46211;BME280;52144;48.040;-1.594;2023-09-07T07:43:32;100991.72;;;27.87;84.05
46211;BME280;52144;48.040;-1.594;2023-09-07T07:46:00;100993.59;;;27.95;83.61
46211;BME280;52144;48.040;-1.594;2023-09-07T07:48:28;100997.16;;;27.95;84.20
46211;BME280;52144;48.040;-1.594;2023-09-07T07:50:56;100993.97;;;28.23;81.90
46211;BME280;52144;48.040;-1.594;2023-09-07T07:53:24;101002.91;;;28.09;81.13
46211;BME280;52144;48.040;-1.594;2023-09-07T07:55:52;101001.72;;;28.42;82.61
46211;BME280;52144;48.040;-1.594;2023-09-07T07:58:20;101007.53;;;28.48;81.03
46211;BME280;52144;48.040;-1.594;2023-09-07T08:00:49;101006.22;;;28.35;80.92
46211;BME280;52144;48.040;-1.594;2023-09-07T08:03:16;100992.22;;;27.83;83.70
46211;BME280;52144;48.040;-1.594;2023-09-07T08:05:47;101000.91;;;27.94;83.35
46211;BME280;52144;48.040;-1.594;2023-09-07T08:08:14;100993.75;;;27.93;83.55
46211;BME280;52144;48.040;-1.594;2023-09-07T08:10:42;100993.38;;;27.96;83.76
46211;BME280;52144;48.040;-1.594;2023-09-07T08:13:12;100993.75;;;27.85;85.50
46211;BME280;52144;48.040;-1.594;2023-09-07T08:15:40;100988.91;;;28.35;81.63
46211;BME280;52144;48.040;-1.594;2023-09-07T08:18:10;100994.53;;;28.50;80.73
46211;BME280;52144;48.040;-1.594;2023-09-07T08:20:38;100989.34;;;28.47;81.42
46211;BME280;52144;48.040;-1.594;2023-09-07T08:23:08;100989.97;;;28.88;79.29
46211;BME280;52144;48.040;-1.594;2023-09-07T08:25:37;100990.72;;;28.97;79.74
46211;BME280;52144;48.040;-1.594;2023-09-07T08:28:06;100986.75;;;28.99;79.33
46211;BME280;52144;48.040;-1.594;2023-09-07T08:30:34;100990.00;;;29.03;78.66
46211;BME280;52144;48.040;-1.594;2023-09-07T08:33:04;100992.16;;;29.31;78.71
46211;BME280;52144;48.040;-1.594;2023-09-07T08:35:34;100986.31;;;29.34;78.77
46211;BME280;52144;48.040;-1.594;2023-09-07T08:38:04;100992.94;;;29.54;77.67
46211;BME280;52144;48.040;-1.594;2023-09-07T08:40:35;100996.09;;;29.81;76.03
46211;BME280;52144;48.040;-1.594;2023-09-07T08:43:08;100995.78;;;30.06;73.79
46211;BME280;52144;48.040;-1.594;2023-09-07T08:45:42;100998.78;;;30.26;71.59
46211;BME280;52144;48.040;-1.594;2023-09-07T08:48:15;101002.19;;;30.28;72.05
46211;BME280;52144;48.040;-1.594;2023-09-07T08:50:46;100993.22;;;30.19;72.75
46211;BME280;52144;48.040;-1.594;2023-09-07T08:53:18;100992.38;;;30.33;72.92
46211;BME280;52144;48.040;-1.594;2023-09-07T08:55:46;100993.81;;;30.51;71.21
46211;BME280;52144;48.040;-1.594;2023-09-07T08:58:14;101005.88;;;30.71;70.70
46211;BME280;52144;48.040;-1.594;2023-09-07T09:00:42;101006.38;;;30.82;70.80
46211;BME280;52144;48.040;-1.594;2023-09-07T09:03:10;100996.81;;;30.92;69.50
46211;BME280;52144;48.040;-1.594;2023-09-07T09:05:39;100995.97;;;30.92;70.44
46211;BME280;52144;48.040;-1.594;2023-09-07T09:08:09;101002.41;;;31.06;68.90
46211;BME280;52144;48.040;-1.594;2023-09-07T09:10:38;101006.94;;;31.13;69.25
46211;BME280;52144;48.040;-1.594;2023-09-07T09:13:07;101008.50;;;31.23;69.68
46211;BME280;52144;48.040;-1.594;2023-09-07T09:15:35;101006.75;;;31.43;70.08
46211;BME280;52144;48.040;-1.594;2023-09-07T09:18:10;101002.28;;;31.42;68.56
46211;BME280;52144;48.040;-1.594;2023-09-07T09:20:39;101001.00;;;31.66;70.11
46211;BME280;52144;48.040;-1.594;2023-09-07T09:23:06;101007.13;;;31.62;67.64
46211;BME280;52144;48.040;-1.594;2023-09-07T09:25:36;101008.06;;;31.82;68.23
46211;BME280;52144;48.040;-1.594;2023-09-07T09:28:05;101011.97;;;31.94;67.56
46211;BME280;52144;48.040;-1.594;2023-09-07T09:30:33;101016.19;;;31.97;65.91
46211;BME280;52144;48.040;-1.594;2023-09-07T09:33:01;101018.84;;;32.12;66.98
46211;BME280;52144;48.040;-1.594;2023-09-07T09:35:29;101011.47;;;32.19;65.13
46211;BME280;52144;48.040;-1.594;2023-09-07T09:38:00;101018.91;;;32.25;63.91
46211;BME280;52144;48.040;-1.594;2023-09-07T09:40:31;101015.94;;;32.20;65.45
46211;BME280;52144;48.040;-1.594;2023-09-07T09:43:03;101017.38;;;32.16;65.51
46211;BME280;52144;48.040;-1.594;2023-09-07T09:45:31;101016.94;;;32.12;63.88
46211;BME280;52144;48.040;-1.594;2023-09-07T09:47:59;101017.69;;;32.34;65.08
46211;BME280;52144;48.040;-1.594;2023-09-07T09:50:27;101016.41;;;32.30;65.46
46211;BME280;52144;48.040;-1.594;2023-09-07T09:52:56;101013.63;;;32.30;65.11
46211;BME280;52144;48.040;-1.594;2023-09-07T09:55:25;101010.16;;;32.63;64.59
46211;BME280;52144;48.040;-1.594;2023-09-07T09:57:53;101012.91;;;32.63;63.74
46211;BME280;52144;48.040;-1.594;2023-09-07T10:00:25;101006.56;;;32.83;63.04
46211;BME280;52144;48.040;-1.594;2023-09-07T10:03:00;100997.47;;;33.09;62.17
46211;BME280;52144;48.040;-1.594;2023-09-07T10:05:30;101000.84;;;32.97;63.53
46211;BME280;52144;48.040;-1.594;2023-09-07T10:08:07;100994.06;;;33.13;62.64
46211;BME280;52144;48.040;-1.594;2023-09-07T10:10:36;100993.63;;;33.30;61.51
46211;BME280;52144;48.040;-1.594;2023-09-07T10:13:05;100991.53;;;33.18;59.21
46211;BME280;52144;48.040;-1.594;2023-09-07T10:15:34;100998.72;;;33.40;58.42
46211;BME280;52144;48.040;-1.594;2023-09-07T10:18:07;100999.38;;;33.48;58.86
46211;BME280;52144;48.040;-1.594;2023-09-07T10:20:47;100997.22;;;33.57;58.77
46211;BME280;52144;48.040;-1.594;2023-09-07T10:23:16;100993.59;;;33.70;58.75
46211;BME280;52144;48.040;-1.594;2023-09-07T10:25:47;100999.28;;;33.88;57.44
46211;BME280;52144;48.040;-1.594;2023-09-07T10:28:19;100990.97;;;34.02;57.76
46211;BME280;52144;48.040;-1.594;2023-09-07T10:30:59;100986.94;;;33.97;56.78
46211;BME280;52144;48.040;-1.594;2023-09-07T10:33:30;100993.44;;;34.23;58.82
46211;BME280;52144;48.040;-1.594;2023-09-07T10:35:59;100986.88;;;34.11;56.57
46211;BME280;52144;48.040;-1.594;2023-09-07T10:38:28;100987.06;;;34.23;57.31
46211;BME280;52144;48.040;-1.594;2023-09-07T10:40:56;100979.72;;;34.42;57.17
46211;BME280;52144;48.040;-1.594;2023-09-07T10:43:25;100983.25;;;34.24;56.43
46211;BME280;52144;48.040;-1.594;2023-09-07T10:45:54;100980.97;;;34.46;55.98
46211;BME280;52144;48.040;-1.594;2023-09-07T10:48:24;100979.19;;;34.58;57.27
46211;BME280;52144;48.040;-1.594;2023-09-07T10:50:52;100973.91;;;34.50;57.52
46211;BME280;52144;48.040;-1.594;2023-09-07T10:53:25;100972.69;;;34.78;56.18
46211;BME280;52144;48.040;-1.594;2023-09-07T10:55:54;100964.66;;;35.01;55.64
46211;BME280;52144;48.040;-1.594;2023-09-07T10:58:25;100961.88;;;35.01;55.00
46211;BME280;52144;48.040;-1.594;2023-09-07T11:00:57;100956.25;;;34.51;53.87
46211;BME280;52144;48.040;-1.594;2023-09-07T11:03:27;100962.53;;;34.71;53.74
46211;BME280;52144;48.040;-1.594;2023-09-07T11:05:58;100961.56;;;34.84;52.58
46211;BME280;52144;48.040;-1.594;2023-09-07T11:08:28;100956.28;;;34.83;51.84
46211;BME280;52144;48.040;-1.594;2023-09-07T11:10:56;100960.91;;;35.14;51.99
46211;BME280;52144;48.040;-1.594;2023-09-07T11:13:24;100956.56;;;35.25;51.19
46211;BME280;52144;48.040;-1.594;2023-09-07T11:15:54;100959.03;;;35.33;50.43
46211;BME280;52144;48.040;-1.594;2023-09-07T11:18:23;100955.13;;;35.41;49.71
46211;BME280;52144;48.040;-1.594;2023-09-07T11:20:53;100959.03;;;35.51;50.99
46211;BME280;52144;48.040;-1.594;2023-09-07T11:23:21;100957.91;;;35.59;50.41
46211;BME280;52144;48.040;-1.594;2023-09-07T11:25:50;100957.50;;;35.55;50.11
46211;BME280;52144;48.040;-1.594;2023-09-07T11:28:19;100951.38;;;34.85;50.18
46211;BME280;52144;48.040;-1.594;2023-09-07T11:30:49;100948.03;;;35.01;50.99
46211;BME280;52144;48.040;-1.594;2023-09-07T11:33:17;100947.50;;;34.86;50.85
46211;BME280;52144;48.040;-1.594;2023-09-07T11:35:46;100952.44;;;35.34;50.07
46211;BME280;52144;48.040;-1.594;2023-09-07T11:38:16;100950.56;;;35.28;49.43
46211;BME280;52144;48.040;-1.594;2023-09-07T11:40:45;100946.28;;;35.32;50.11
46211;BME280;52144;48.040;-1.594;2023-09-07T11:43:13;100943.75;;;35.49;49.83
46211;BME280;52144;48.040;-1.594;2023-09-07T11:45:42;100942.41;;;35.77;48.76
46211;BME280;52144;48.040;-1.594;2023-09-07T11:48:11;100940.84;;;35.62;48.98
46211;BME280;52144;48.040;-1.594;2023-09-07T11:50:39;100940.06;;;35.73;47.45
46211;BME280;52144;48.040;-1.594;2023-09-07T11:53:07;100935.19;;;36.06;48.09
46211;BME280;52144;48.040;-1.594;2023-09-07T11:55:37;100925.97;;;35.93;47.45
46211;BME280;52144;48.040;-1.594;2023-09-07T11:58:06;100927.06;;;35.74;47.84
46211;BME280;52144;48.040;-1.594;2023-09-07T12:00:34;100920.81;;;35.97;47.70
46211;BME280;52144;48.040;-1.594;2023-09-07T12:03:02;100920.16;;;36.13;47.50
46211;BME280;52144;48.040;-1.594;2023-09-07T12:05:30;100921.19;;;35.82;45.93
46211;BME280;52144;48.040;-1.594;2023-09-07T12:07:58;100916.75;;;35.81;46.62
46211;BME280;52144;48.040;-1.594;2023-09-07T12:10:27;100924.06;;;35.75;46.21
46211;BME280;52144;48.040;-1.594;2023-09-07T12:12:56;100921.59;;;35.67;47.25
46211;BME280;52144;48.040;-1.594;2023-09-07T12:15:24;100934.13;;;35.51;48.63
46211;BME280;52144;48.040;-1.594;2023-09-07T12:17:52;100924.47;;;35.35;49.57
46211;BME280;52144;48.040;-1.594;2023-09-07T12:20:22;100929.16;;;35.79;47.63
46211;BME280;52144;48.040;-1.594;2023-09-07T12:22:50;100925.13;;;35.93;48.16
46211;BME280;52144;48.040;-1.594;2023-09-07T12:25:18;100924.53;;;36.03;49.20
46211;BME280;52144;48.040;-1.594;2023-09-07T12:27:46;100924.66;;;35.96;48.30
46211;BME280;52144;48.040;-1.594;2023-09-07T12:30:19;100922.91;;;35.46;49.42
46211;BME280;52144;48.040;-1.594;2023-09-07T12:32:47;100927.16;;;35.67;48.59
46211;BME280;52144;48.040;-1.594;2023-09-07T12:35:16;100917.91;;;36.22;48.81
46211;BME280;52144;48.040;-1.594;2023-09-07T12:37:46;100917.31;;;36.02;47.99
46211;BME280;52144;48.040;-1.594;2023-09-07T12:40:14;100923.81;;;35.59;48.17
46211;BME280;52144;48.040;-1.594;2023-09-07T12:42:44;100926.59;;;35.59;49.41
46211;BME280;52144;48.040;-1.594;2023-09-07T12:45:13;100918.06;;;35.79;49.08
46211;BME280;52144;48.040;-1.594;2023-09-07T12:47:43;100920.44;;;35.56;49.77